Hauptseite
METAR-TAF:

METAR-TAF

Flughäfen :

Palma, Spanien

Flughafen Palma de Mallorca

Breite: 39-33N, Länge: 002-44E, Höhe: 4 m

Beobachtung

Neuester Wetterbericht von vor 11 Minuten, um 14:00 UTC
Wind 7 kt aus West, variierte zwischen Südwest und West/Nordwest
Temperatur 23°C
Luftfeuchtigkeit 57%
Luftdruck 1017 hPa
Sichtweite 10 km oder mehr
Leicht bewölkt in der Höhe von 2000 ft

METAR: LEPA 201400Z 27007KT 230V300 9999 FEW020 23/14 Q1017 NOSIG

Zeit: 16:11 (14:11 UTC)

Prognose

Neuester Wetterbericht von vor 3 Stunden und 11 Minuten, um 11:00 UTC
Gültige Prognose vom 20 um 12 UTC bis 21 um 12 UTC
Wind 4 kt aus unterschiedlichen Richtungen
Sichtweite 10 km oder mehr
Aufgelockert bewölkt in der Höhe von 2000 ft
Übergehend zu
vom 21 um 10 UTC bis 21 um 12 UTC
Wind 8 kt aus Südwest

TAF: LEPA 201100Z 2012/2112 VRB04KT 9999 SCT020 TX24/2012Z TN13/2106Z BECMG 2110/2112 22008KT

Wetterbeobachtungen und Prognosen von mehr als 4000 Flughäfen (METAR und TAF Bericht).

Die verfügbaren Stationen werden durch gelbe und rote Markierungen auf der Karte dargestellt.

Führen Sie die Maus auf sie, um den Namen der Station zu sehen.

Darauf klicken, um die Beobachtung von Wetterbeobachtungen und Prognosen zu sehen.

Um die Karte zu ändern : klicken Sie auf den grünen Tasten mit einem schwarzen Kreuz Zum Vergrößern, auf den grünen Button mit einem Gedankenstrich zu verkleinern, oder auf die grünen Pfeile für benachbarte Karten.


METAR-TAF: